AFL208 UUEE-ZSPD
Flight info
| Callsign | AFL208 |
|---|---|
| Flight time | N/A |
| Altitude | 33000 |
| Route | OLMUN3J OLMUN T629 IPSIL T830 LAMGU N604 OGSIN P983 DIGTU/K0889F350 P983 TINRI T448 RUBOR A300 ML A308 KD A575 DARNO/K0882S1070 Y746 ENGUG/K0902S1130 Y746 NIXAL G343 TMR B458 BIKUT W69 HUR B339 SOTMU/K0895S1100 W98 ELKUR W40 DOXAB/K0891S1130 W40 YQG/K0889S1160 W142 DALIM/K0893S1130 A593 VMB W161 SASAN SAS82A |
| Aircraft | B77W/H-SDE1E2E3FGHIJ2J3J4J5M1RWXY/LB1D1 |
Departure
| Time | N/A |
|---|---|
| Airport | Sheremetyevo International Airport (UUEE) |
Arrival
| Time | 2026-05-06 18:58 |
|---|---|
| Airport | Shanghai Pudong International Airport (ZSPD) |
| Time | Latitude | Longitude | Altitude | Speed | Heading |
|---|---|---|---|---|---|
| 2026-05-06 17:26 | 39.93505 | 116.82721 | 37061 ft | 472 kts | 184° |
| 2026-05-06 17:27 | 39.90472 | 116.83336 | 37052 ft | 475 kts | 184° |
| 2026-05-06 17:27 | 39.83976 | 116.84645 | 37019 ft | 467 kts | 185° |
| 2026-05-06 17:27 | 39.80788 | 116.85016 | 37023 ft | 453 kts | 191° |
| 2026-05-06 17:28 | 39.77662 | 116.85013 | 37017 ft | 446 kts | 195° |
| 2026-05-06 17:28 | 39.71588 | 116.84122 | 37020 ft | 438 kts | 200° |
| 2026-05-06 17:29 | 39.65538 | 116.83075 | 37022 ft | 440 kts | 200° |
| 2026-05-06 17:29 | 39.59454 | 116.82048 | 37019 ft | 442 kts | 199° |
| 2026-05-06 17:30 | 39.53350 | 116.81038 | 37021 ft | 443 kts | 199° |
| 2026-05-06 17:30 | 39.47226 | 116.80031 | 37018 ft | 444 kts | 199° |
| 2026-05-06 17:31 | 39.41098 | 116.79026 | 37014 ft | 444 kts | 199° |
| 2026-05-06 17:31 | 39.34963 | 116.78020 | 37010 ft | 444 kts | 199° |
| 2026-05-06 17:32 | 39.28829 | 116.77016 | 37008 ft | 444 kts | 199° |
| 2026-05-06 17:32 | 39.22665 | 116.76009 | 36996 ft | 444 kts | 199° |
| 2026-05-06 17:33 | 39.16543 | 116.75010 | 37009 ft | 443 kts | 199° |
| 2026-05-06 17:33 | 39.10423 | 116.74012 | 37005 ft | 443 kts | 199° |
| 2026-05-06 17:34 | 39.04305 | 116.73017 | 37007 ft | 443 kts | 199° |
| 2026-05-06 17:34 | 38.98196 | 116.72025 | 37006 ft | 443 kts | 199° |
| 2026-05-06 17:35 | 38.92057 | 116.71030 | 37003 ft | 444 kts | 199° |
| 2026-05-06 17:35 | 38.85920 | 116.70036 | 37007 ft | 444 kts | 199° |
| 2026-05-06 17:36 | 38.76708 | 116.68549 | 37008 ft | 445 kts | 199° |
| 2026-05-06 17:36 | 38.70558 | 116.67558 | 37007 ft | 446 kts | 199° |
| 2026-05-06 17:37 | 38.64400 | 116.66568 | 37012 ft | 446 kts | 199° |
| 2026-05-06 17:37 | 38.58192 | 116.65755 | 37006 ft | 451 kts | 197° |
| 2026-05-06 17:38 | 38.51936 | 116.65092 | 37015 ft | 451 kts | 197° |
| 2026-05-06 17:38 | 38.48804 | 116.64749 | 37205 ft | 452 kts | 197° |
| 2026-05-06 17:38 | 38.45686 | 116.64400 | 37560 ft | 449 kts | 197° |
| 2026-05-06 17:39 | 38.42582 | 116.64047 | 37938 ft | 446 kts | 197° |
| 2026-05-06 17:39 | 38.39485 | 116.63689 | 37995 ft | 449 kts | 197° |
| 2026-05-06 17:39 | 38.33274 | 116.63019 | 37995 ft | 451 kts | 194° |
| 2026-05-06 17:40 | 38.26907 | 116.63574 | 38001 ft | 468 kts | 184° |
| 2026-05-06 17:40 | 38.23684 | 116.64400 | 37997 ft | 480 kts | 177° |
| 2026-05-06 17:40 | 38.20455 | 116.65591 | 38010 ft | 484 kts | 175° |
| 2026-05-06 17:41 | 38.14023 | 116.68113 | 38003 ft | 482 kts | 175° |
| 2026-05-06 17:41 | 38.07559 | 116.70535 | 37999 ft | 481 kts | 175° |
| 2026-05-06 17:42 | 38.01164 | 116.72968 | 38001 ft | 479 kts | 175° |
| 2026-05-06 17:42 | 37.94786 | 116.75403 | 37995 ft | 478 kts | 175° |
| 2026-05-06 17:43 | 37.88421 | 116.77825 | 38012 ft | 477 kts | 175° |
| 2026-05-06 17:43 | 37.82071 | 116.80233 | 38001 ft | 476 kts | 175° |
| 2026-05-06 17:44 | 37.75720 | 116.82636 | 37991 ft | 476 kts | 175° |
| 2026-05-06 17:44 | 37.69382 | 116.85029 | 37992 ft | 475 kts | 175° |
| 2026-05-06 17:45 | 37.63054 | 116.87416 | 37987 ft | 475 kts | 175° |
| 2026-05-06 17:45 | 37.56720 | 116.89800 | 37989 ft | 475 kts | 174° |
| 2026-05-06 17:46 | 37.50386 | 116.92180 | 37986 ft | 475 kts | 174° |
| 2026-05-06 17:46 | 37.44045 | 116.94559 | 37986 ft | 476 kts | 174° |
| 2026-05-06 17:47 | 37.37688 | 116.96940 | 37989 ft | 477 kts | 174° |
| 2026-05-06 17:47 | 37.31330 | 116.99318 | 37978 ft | 477 kts | 174° |
| 2026-05-06 17:48 | 37.25002 | 117.02068 | 37973 ft | 484 kts | 169° |
| 2026-05-06 17:48 | 37.18708 | 117.05079 | 37975 ft | 484 kts | 170° |
| 2026-05-06 17:49 | 37.12373 | 117.08044 | 37960 ft | 482 kts | 170° |
| 2026-05-06 17:49 | 37.06081 | 117.10971 | 37953 ft | 481 kts | 169° |
| 2026-05-06 17:50 | 36.99809 | 117.13890 | 37958 ft | 480 kts | 169° |
| 2026-05-06 17:50 | 36.93557 | 117.16799 | 37958 ft | 479 kts | 169° |
| 2026-05-06 17:51 | 36.87305 | 117.19674 | 37956 ft | 475 kts | 172° |
| 2026-05-06 17:51 | 36.80973 | 117.21363 | 37963 ft | 459 kts | 183° |
| 2026-05-06 17:52 | 36.74685 | 117.21631 | 37967 ft | 449 kts | 190° |
| 2026-05-06 17:52 | 36.68428 | 117.21520 | 37961 ft | 451 kts | 190° |
| 2026-05-06 17:53 | 36.62134 | 117.21444 | 37963 ft | 453 kts | 189° |
| 2026-05-06 17:53 | 36.55812 | 117.21400 | 37961 ft | 456 kts | 189° |
| 2026-05-06 17:54 | 36.49453 | 117.21358 | 37951 ft | 458 kts | 189° |
| 2026-05-06 17:54 | 36.43056 | 117.21555 | 37937 ft | 466 kts | 182° |
| 2026-05-06 17:55 | 36.36607 | 117.23110 | 37947 ft | 479 kts | 172° |
| 2026-05-06 17:55 | 36.30222 | 117.25526 | 37938 ft | 480 kts | 171° |
| 2026-05-06 17:56 | 36.23830 | 117.27968 | 37925 ft | 480 kts | 172° |
| 2026-05-06 17:56 | 36.17442 | 117.30353 | 37929 ft | 479 kts | 172° |
| 2026-05-06 17:57 | 36.11058 | 117.32713 | 37929 ft | 479 kts | 172° |
| 2026-05-06 17:57 | 36.04680 | 117.35069 | 37925 ft | 478 kts | 172° |
| 2026-05-06 17:58 | 35.98264 | 117.37440 | 37919 ft | 478 kts | 172° |
| 2026-05-06 17:58 | 35.92971 | 117.39417 | 37916 ft | 477 kts | 171° |
| 2026-05-06 17:59 | 35.86621 | 117.41800 | 37915 ft | 476 kts | 171° |
| 2026-05-06 17:59 | 35.80289 | 117.44170 | 37922 ft | 475 kts | 171° |
| 2026-05-06 18:00 | 35.74008 | 117.46513 | 37902 ft | 474 kts | 171° |
| 2026-05-06 18:00 | 35.67709 | 117.48859 | 37910 ft | 472 kts | 171° |
| 2026-05-06 18:01 | 35.61420 | 117.51197 | 37909 ft | 471 kts | 171° |
| 2026-05-06 18:01 | 35.55146 | 117.53524 | 37911 ft | 471 kts | 171° |
| 2026-05-06 18:02 | 35.48876 | 117.55847 | 37909 ft | 470 kts | 171° |
| 2026-05-06 18:02 | 35.42611 | 117.58164 | 37909 ft | 470 kts | 171° |
| 2026-05-06 18:03 | 35.36346 | 117.60478 | 37902 ft | 471 kts | 171° |
| 2026-05-06 18:03 | 35.30029 | 117.62807 | 37896 ft | 471 kts | 171° |
| 2026-05-06 18:04 | 35.23742 | 117.65121 | 37894 ft | 472 kts | 171° |
| 2026-05-06 18:04 | 35.17446 | 117.67435 | 37895 ft | 473 kts | 171° |
| 2026-05-06 18:05 | 35.11146 | 117.69750 | 37889 ft | 474 kts | 171° |
| 2026-05-06 18:05 | 35.04829 | 117.72063 | 37887 ft | 474 kts | 171° |
| 2026-05-06 18:06 | 34.98497 | 117.74382 | 37885 ft | 475 kts | 171° |
| 2026-05-06 18:06 | 34.92157 | 117.76703 | 37886 ft | 476 kts | 170° |
| 2026-05-06 18:07 | 34.85810 | 117.79023 | 37882 ft | 476 kts | 170° |
| 2026-05-06 18:07 | 34.79462 | 117.81344 | 37876 ft | 476 kts | 170° |
| 2026-05-06 18:08 | 34.73115 | 117.83630 | 37874 ft | 476 kts | 170° |
| 2026-05-06 18:08 | 34.66770 | 117.85905 | 37873 ft | 475 kts | 170° |
| 2026-05-06 18:09 | 34.60431 | 117.88179 | 37877 ft | 475 kts | 170° |
| 2026-05-06 18:09 | 34.54096 | 117.90451 | 37874 ft | 474 kts | 170° |
| 2026-05-06 18:10 | 34.47770 | 117.92716 | 37868 ft | 474 kts | 170° |
| 2026-05-06 18:10 | 34.41445 | 117.94978 | 37867 ft | 474 kts | 169° |
| 2026-05-06 18:11 | 34.35117 | 117.97237 | 37868 ft | 474 kts | 169° |
| 2026-05-06 18:11 | 34.28857 | 117.99860 | 37870 ft | 481 kts | 161° |
| 2026-05-06 18:12 | 34.22953 | 118.03934 | 37860 ft | 491 kts | 150° |
| 2026-05-06 18:12 | 34.17443 | 118.08836 | 37865 ft | 492 kts | 149° |
| 2026-05-06 18:13 | 34.11922 | 118.13729 | 37869 ft | 492 kts | 149° |
| 2026-05-06 18:13 | 34.06366 | 118.18557 | 37859 ft | 493 kts | 149° |
| 2026-05-06 18:14 | 34.00809 | 118.23397 | 37869 ft | 493 kts | 149° |
| 2026-05-06 18:14 | 33.95244 | 118.28243 | 37874 ft | 494 kts | 149° |
| 2026-05-06 18:15 | 33.89685 | 118.33114 | 37875 ft | 494 kts | 149° |
| 2026-05-06 18:15 | 33.84128 | 118.37988 | 37873 ft | 495 kts | 149° |
| 2026-05-06 18:16 | 33.78557 | 118.42862 | 37878 ft | 495 kts | 149° |
| 2026-05-06 18:16 | 33.72975 | 118.47736 | 37877 ft | 496 kts | 149° |
| 2026-05-06 18:17 | 33.67382 | 118.52610 | 37879 ft | 498 kts | 149° |
| 2026-05-06 18:17 | 33.61768 | 118.57496 | 37876 ft | 499 kts | 149° |
| 2026-05-06 18:18 | 33.56145 | 118.62381 | 37885 ft | 500 kts | 150° |
| 2026-05-06 18:18 | 33.50504 | 118.67277 | 37884 ft | 501 kts | 150° |
| 2026-05-06 18:19 | 33.44854 | 118.72171 | 37885 ft | 502 kts | 150° |
| 2026-05-06 18:19 | 33.39162 | 118.77111 | 37886 ft | 502 kts | 150° |
| 2026-05-06 18:20 | 33.33578 | 118.81956 | 37890 ft | 502 kts | 150° |
| 2026-05-06 18:20 | 33.27928 | 118.86852 | 37888 ft | 501 kts | 150° |
| 2026-05-06 18:21 | 33.22311 | 118.91764 | 37887 ft | 500 kts | 149° |
| 2026-05-06 18:21 | 33.16699 | 118.96653 | 37891 ft | 499 kts | 150° |
| 2026-05-06 18:22 | 33.11089 | 119.01496 | 37890 ft | 497 kts | 150° |
| 2026-05-06 18:22 | 33.05486 | 119.06326 | 37891 ft | 496 kts | 150° |
| 2026-05-06 18:23 | 32.99894 | 119.11146 | 37890 ft | 496 kts | 150° |
| 2026-05-06 18:23 | 32.94302 | 119.15960 | 37895 ft | 496 kts | 150° |
| 2026-05-06 18:24 | 32.88727 | 119.20800 | 37897 ft | 496 kts | 149° |
| 2026-05-06 18:24 | 32.83159 | 119.25666 | 37900 ft | 497 kts | 149° |
| 2026-05-06 18:25 | 32.77599 | 119.30516 | 37900 ft | 498 kts | 149° |
| 2026-05-06 18:25 | 32.71980 | 119.35401 | 37898 ft | 499 kts | 149° |
| 2026-05-06 18:26 | 32.66366 | 119.40273 | 37908 ft | 500 kts | 149° |
| 2026-05-06 18:26 | 32.60747 | 119.45142 | 37899 ft | 501 kts | 149° |
| 2026-05-06 18:27 | 32.55108 | 119.50022 | 37902 ft | 502 kts | 149° |
| 2026-05-06 18:27 | 32.49422 | 119.54936 | 37903 ft | 503 kts | 149° |
| 2026-05-06 18:28 | 32.43761 | 119.59810 | 37903 ft | 504 kts | 149° |
| 2026-05-06 18:28 | 32.38068 | 119.64669 | 37902 ft | 504 kts | 149° |
| 2026-05-06 18:29 | 32.32377 | 119.69522 | 37910 ft | 505 kts | 149° |
| 2026-05-06 18:29 | 32.26685 | 119.74374 | 37902 ft | 505 kts | 149° |
| 2026-05-06 18:30 | 32.20985 | 119.79233 | 37899 ft | 505 kts | 149° |
| 2026-05-06 18:30 | 32.15299 | 119.84092 | 37796 ft | 502 kts | 149° |
| 2026-05-06 18:31 | 32.12472 | 119.86508 | 37501 ft | 501 kts | 149° |
| 2026-05-06 18:31 | 32.09644 | 119.88919 | 37101 ft | 502 kts | 149° |
| 2026-05-06 18:31 | 32.06812 | 119.91332 | 36720 ft | 503 kts | 149° |
| 2026-05-06 18:31 | 32.03977 | 119.93744 | 36353 ft | 503 kts | 149° |
| 2026-05-06 18:32 | 32.01150 | 119.96163 | 36007 ft | 502 kts | 149° |
| 2026-05-06 18:32 | 31.98327 | 119.98590 | 35528 ft | 502 kts | 148° |
| 2026-05-06 18:32 | 31.95499 | 120.01023 | 34693 ft | 504 kts | 148° |
| 2026-05-06 18:32 | 31.93620 | 120.02639 | 34163 ft | 505 kts | 148° |
| 2026-05-06 18:33 | 31.90781 | 120.05079 | 33202 ft | 506 kts | 148° |
| 2026-05-06 18:33 | 31.87935 | 120.07523 | 32282 ft | 507 kts | 148° |
| 2026-05-06 18:33 | 31.85083 | 120.09968 | 31468 ft | 506 kts | 147° |
| 2026-05-06 18:33 | 31.82223 | 120.12419 | 30871 ft | 500 kts | 147° |
| 2026-05-06 18:34 | 31.79417 | 120.14821 | 30272 ft | 496 kts | 147° |
| 2026-05-06 18:34 | 31.76635 | 120.17200 | 29618 ft | 493 kts | 147° |
| 2026-05-06 18:34 | 31.73873 | 120.19558 | 28956 ft | 489 kts | 148° |
| 2026-05-06 18:34 | 31.71116 | 120.21870 | 28341 ft | 485 kts | 148° |
| 2026-05-06 18:35 | 31.68371 | 120.24139 | 27740 ft | 481 kts | 149° |
| 2026-05-06 18:35 | 31.65650 | 120.26385 | 27150 ft | 477 kts | 149° |
| 2026-05-06 18:35 | 31.62949 | 120.28621 | 26573 ft | 473 kts | 149° |
| 2026-05-06 18:35 | 31.60365 | 120.30963 | 25978 ft | 471 kts | 139° |
| 2026-05-06 18:36 | 31.58338 | 120.34001 | 25422 ft | 475 kts | 121° |
| 2026-05-06 18:36 | 31.57091 | 120.37574 | 24890 ft | 473 kts | 110° |
| 2026-05-06 18:36 | 31.56074 | 120.41237 | 24329 ft | 472 kts | 110° |
| 2026-05-06 18:36 | 31.55060 | 120.44889 | 23762 ft | 470 kts | 111° |
| 2026-05-06 18:37 | 31.54031 | 120.48522 | 23140 ft | 469 kts | 111° |
| 2026-05-06 18:37 | 31.52985 | 120.52135 | 22532 ft | 467 kts | 111° |
| 2026-05-06 18:37 | 31.51932 | 120.55719 | 21953 ft | 463 kts | 111° |
| 2026-05-06 18:37 | 31.50879 | 120.59275 | 21395 ft | 460 kts | 112° |
| 2026-05-06 18:38 | 31.49833 | 120.62794 | 20846 ft | 456 kts | 112° |
| 2026-05-06 18:38 | 31.48790 | 120.66296 | 20310 ft | 453 kts | 112° |
| 2026-05-06 18:38 | 31.47757 | 120.69770 | 19760 ft | 450 kts | 112° |
| 2026-05-06 18:38 | 31.46728 | 120.73227 | 19217 ft | 448 kts | 112° |
| 2026-05-06 18:39 | 31.45705 | 120.76660 | 18663 ft | 446 kts | 112° |
| 2026-05-06 18:39 | 31.44684 | 120.80075 | 18091 ft | 444 kts | 112° |
| 2026-05-06 18:39 | 31.43635 | 120.83470 | 17486 ft | 441 kts | 112° |
| 2026-05-06 18:40 | 31.41542 | 120.90163 | 16371 ft | 434 kts | 112° |
| 2026-05-06 18:40 | 31.40682 | 120.93504 | 15807 ft | 428 kts | 101° |
| 2026-05-06 18:40 | 31.40659 | 120.96960 | 15379 ft | 425 kts | 82° |
| 2026-05-06 18:40 | 31.41455 | 121.00257 | 15026 ft | 417 kts | 69° |
| 2026-05-06 18:41 | 31.42500 | 121.03450 | 14681 ft | 413 kts | 69° |
| 2026-05-06 18:41 | 31.43484 | 121.06593 | 14314 ft | 410 kts | 70° |
| 2026-05-06 18:41 | 31.44424 | 121.09723 | 13961 ft | 403 kts | 72° |
| 2026-05-06 18:41 | 31.44920 | 121.12910 | 13555 ft | 396 kts | 92° |
| 2026-05-06 18:42 | 31.44602 | 121.16064 | 13222 ft | 389 kts | 101° |
| 2026-05-06 18:42 | 31.44188 | 121.19212 | 12864 ft | 393 kts | 99° |
| 2026-05-06 18:42 | 31.43816 | 121.22393 | 12500 ft | 394 kts | 99° |
| 2026-05-06 18:42 | 31.43471 | 121.25570 | 12135 ft | 392 kts | 98° |
| 2026-05-06 18:43 | 31.43135 | 121.28718 | 11786 ft | 388 kts | 98° |
| 2026-05-06 18:43 | 31.42803 | 121.31827 | 11437 ft | 382 kts | 98° |
| 2026-05-06 18:43 | 31.42480 | 121.34827 | 11091 ft | 360 kts | 98° |
| 2026-05-06 18:43 | 31.42174 | 121.37640 | 10823 ft | 337 kts | 98° |
| 2026-05-06 18:44 | 31.41891 | 121.40223 | 10537 ft | 314 kts | 98° |
| 2026-05-06 18:44 | 31.41611 | 121.42549 | 10298 ft | 298 kts | 104° |
| 2026-05-06 18:44 | 31.40755 | 121.44720 | 10057 ft | 293 kts | 131° |
| 2026-05-06 18:44 | 31.39237 | 121.46252 | 9826 ft | 288 kts | 152° |
| 2026-05-06 18:45 | 31.37406 | 121.47133 | 9623 ft | 282 kts | 164° |
| 2026-05-06 18:45 | 31.35534 | 121.47827 | 9298 ft | 283 kts | 165° |
| 2026-05-06 18:45 | 31.33655 | 121.48512 | 9023 ft | 282 kts | 165° |
| 2026-05-06 18:45 | 31.31793 | 121.49206 | 8838 ft | 280 kts | 164° |
| 2026-05-06 18:46 | 31.29929 | 121.49909 | 8419 ft | 284 kts | 164° |
| 2026-05-06 18:46 | 31.28068 | 121.50617 | 7922 ft | 277 kts | 164° |
| 2026-05-06 18:46 | 31.26265 | 121.51308 | 7432 ft | 269 kts | 162° |
| 2026-05-06 18:46 | 31.24673 | 121.52400 | 6905 ft | 268 kts | 136° |
| 2026-05-06 18:47 | 31.23717 | 121.54267 | 6390 ft | 272 kts | 108° |
| 2026-05-06 18:47 | 31.23581 | 121.56455 | 5826 ft | 272 kts | 82° |
| 2026-05-06 18:47 | 31.24092 | 121.58576 | 5298 ft | 270 kts | 69° |
| 2026-05-06 18:47 | 31.25134 | 121.60354 | 5034 ft | 268 kts | 39° |
| 2026-05-06 18:48 | 31.26760 | 121.61342 | 4983 ft | 262 kts | 12° |
| 2026-05-06 18:48 | 31.28569 | 121.61473 | 4993 ft | 261 kts | 348° |
| 2026-05-06 18:48 | 31.30330 | 121.60863 | 4999 ft | 263 kts | 339° |
| 2026-05-06 18:48 | 31.32050 | 121.60185 | 4804 ft | 254 kts | 339° |
| 2026-05-06 18:49 | 31.33667 | 121.59560 | 4565 ft | 237 kts | 339° |
| 2026-05-06 18:49 | 31.35191 | 121.58974 | 4341 ft | 227 kts | 339° |
| 2026-05-06 18:49 | 31.36676 | 121.58404 | 4181 ft | 223 kts | 339° |
| 2026-05-06 18:49 | 31.38177 | 121.57973 | 3934 ft | 228 kts | 357° |
| 2026-05-06 18:50 | 31.39693 | 121.58531 | 3714 ft | 235 kts | 36° |
| 2026-05-06 18:50 | 31.40611 | 121.60034 | 3463 ft | 224 kts | 73° |
| 2026-05-06 18:50 | 31.40936 | 121.61742 | 3279 ft | 208 kts | 80° |
| 2026-05-06 18:50 | 31.41228 | 121.63367 | 3094 ft | 203 kts | 80° |
| 2026-05-06 18:51 | 31.41520 | 121.64977 | 3045 ft | 203 kts | 79° |
| 2026-05-06 18:51 | 31.41806 | 121.66602 | 3006 ft | 203 kts | 85° |
| 2026-05-06 18:51 | 31.41590 | 121.68164 | 2957 ft | 192 kts | 124° |
| 2026-05-06 18:51 | 31.40675 | 121.69231 | 2991 ft | 186 kts | 153° |
| 2026-05-06 18:52 | 31.39480 | 121.69803 | 2973 ft | 185 kts | 165° |
| 2026-05-06 18:52 | 31.38270 | 121.70259 | 2956 ft | 180 kts | 166° |
| 2026-05-06 18:52 | 31.37063 | 121.70708 | 2962 ft | 184 kts | 165° |
| 2026-05-06 18:52 | 31.35837 | 121.71156 | 2967 ft | 185 kts | 166° |
| 2026-05-06 18:53 | 31.34604 | 121.71589 | 2961 ft | 185 kts | 166° |
| 2026-05-06 18:53 | 31.33370 | 121.72043 | 2954 ft | 186 kts | 165° |
| 2026-05-06 18:53 | 31.32147 | 121.72503 | 2966 ft | 183 kts | 165° |
| 2026-05-06 18:53 | 31.30954 | 121.72956 | 2953 ft | 177 kts | 165° |
| 2026-05-06 18:54 | 31.29774 | 121.73402 | 2791 ft | 179 kts | 165° |
| 2026-05-06 18:54 | 31.28617 | 121.73844 | 2554 ft | 167 kts | 164° |
| 2026-05-06 18:54 | 31.27576 | 121.74241 | 2343 ft | 150 kts | 163° |
| 2026-05-06 18:54 | 31.26636 | 121.74599 | 2150 ft | 137 kts | 165° |
| 2026-05-06 18:55 | 31.25732 | 121.74942 | 1992 ft | 138 kts | 165° |
| 2026-05-06 18:55 | 31.24807 | 121.75292 | 1822 ft | 140 kts | 164° |
| 2026-05-06 18:55 | 31.23893 | 121.75641 | 1639 ft | 136 kts | 165° |
| 2026-05-06 18:55 | 31.23041 | 121.75963 | 1456 ft | 135 kts | 164° |
| 2026-05-06 18:56 | 31.22126 | 121.76311 | 1277 ft | 133 kts | 164° |
| 2026-05-06 18:56 | 31.21239 | 121.76648 | 1091 ft | 133 kts | 163° |
| 2026-05-06 18:56 | 31.20339 | 121.76989 | 922 ft | 137 kts | 163° |
| 2026-05-06 18:56 | 31.19439 | 121.77329 | 753 ft | 135 kts | 162° |
| 2026-05-06 18:57 | 31.18548 | 121.77681 | 570 ft | 137 kts | 162° |
| 2026-05-06 18:57 | 31.17637 | 121.78033 | 379 ft | 138 kts | 163° |
| 2026-05-06 18:57 | 31.16712 | 121.78377 | 189 ft | 141 kts | 162° |
| 2026-05-06 18:57 | 31.15775 | 121.78729 | 36 ft | 139 kts | 162° |
| 2026-05-06 18:58 | 31.14949 | 121.79042 | 29 ft | 105 kts | 162° |
| 2026-05-06 18:58 | 31.14401 | 121.79249 | 27 ft | 58 kts | 161° |
| 2026-05-06 18:58 | 31.14195 | 121.79348 | 28 ft | 28 kts | 148° |
| 2026-05-06 18:58 | 31.14114 | 121.79429 | 31 ft | 8 kts | 133° |
| 2026-05-06 18:59 | 31.14100 | 121.79447 | 30 ft | 0 kts | 133° |
| 2026-05-06 19:00 | 31.14100 | 121.79448 | 26 ft | 0 kts | 133° |
| 2026-05-06 19:00 | 31.14097 | 121.79451 | 26 ft | 1 kts | 133° |
| 2026-05-06 19:00 | 31.14093 | 121.79456 | 30 ft | 1 kts | 133° |
| 2026-05-06 19:00 | 31.14087 | 121.79464 | 32 ft | 3 kts | 133° |
| 2026-05-06 19:01 | 31.14048 | 121.79513 | 27 ft | 7 kts | 132° |
| 2026-05-06 19:01 | 31.14024 | 121.79558 | 27 ft | 7 kts | 105° |
| 2026-05-06 19:01 | 31.14026 | 121.79612 | 28 ft | 6 kts | 78° |
| 2026-05-06 19:01 | 31.14029 | 121.79626 | 28 ft | 0 kts | 76° |
| 2026-05-06 19:02 | 31.14029 | 121.79627 | 28 ft | 1 kts | 76° |
| 2026-05-06 19:02 | 31.14036 | 121.79663 | 28 ft | 6 kts | 77° |
| 2026-05-06 19:03 | 31.14045 | 121.79715 | 28 ft | 7 kts | 80° |
| 2026-05-06 19:03 | 31.14057 | 121.79772 | 28 ft | 8 kts | 75° |
| 2026-05-06 19:03 | 31.14073 | 121.79835 | 28 ft | 8 kts | 72° |
| 2026-05-06 19:03 | 31.14091 | 121.79901 | 28 ft | 9 kts | 73° |
| 2026-05-06 19:04 | 31.14110 | 121.79973 | 28 ft | 10 kts | 72° |
| 2026-05-06 19:04 | 31.14132 | 121.80049 | 28 ft | 10 kts | 71° |
| 2026-05-06 19:04 | 31.14153 | 121.80125 | 28 ft | 10 kts | 72° |
| 2026-05-06 19:04 | 31.14175 | 121.80201 | 28 ft | 10 kts | 71° |
| 2026-05-06 19:05 | 31.14185 | 121.80254 | 28 ft | 10 kts | 92° |
| 2026-05-06 19:05 | 31.14134 | 121.80309 | 28 ft | 10 kts | 156° |
| 2026-05-06 19:05 | 31.14066 | 121.80338 | 28 ft | 11 kts | 161° |
| 2026-05-06 19:05 | 31.13996 | 121.80365 | 28 ft | 11 kts | 162° |
| 2026-05-06 19:06 | 31.13927 | 121.80391 | 28 ft | 11 kts | 162° |
| 2026-05-06 19:06 | 31.13857 | 121.80417 | 28 ft | 11 kts | 162° |
| 2026-05-06 19:06 | 31.13793 | 121.80443 | 28 ft | 9 kts | 157° |
| 2026-05-06 19:06 | 31.13761 | 121.80481 | 28 ft | 5 kts | 115° |
| 2026-05-06 19:07 | 31.13744 | 121.80517 | 28 ft | 5 kts | 126° |
| 2026-05-06 19:07 | 31.13713 | 121.80543 | 28 ft | 6 kts | 154° |
| 2026-05-06 19:07 | 31.13681 | 121.80557 | 28 ft | 5 kts | 161° |
| 2026-05-06 19:07 | 31.13670 | 121.80562 | 28 ft | 1 kts | 160° |
| 2026-05-06 19:08 | 31.13669 | 121.80562 | 28 ft | 0 kts | 162° |
| 2026-05-06 19:08 | 31.13668 | 121.80562 | 28 ft | 0 kts | 162° |